Paoli, Oklahoma
Current Conditions -  °F | °C
As of 7:55 PM on Wednesday 26 Nov 2014 (Local Time) from KPVJ Reporting Station
Clear Clear  
Wind Chill: 40°   Ceiling: Unl
Heat Index: 45°   Visibility: 10mi
Dew Point: 27°   Wind: 8mph
Humidity: 49%   Direction: 340°NNW
Pressure: 30.33"   Gusts: NA
Location:  34.83°N, 97.26°W
Report Text: KPVJ 270155Z AUTO 34007KT 10SM CLR 07/M03 A3033 RMK AO2 T00711030
Loading
Personal Weather Stations






























Interactive Weather Map New forecast layout! Learn more

10-Day Weather Forecast

Advertisements
Track Severe Weather on mobile